Time;durP1;ratioP1;P1;durP2;ratioP2;P2;SDS_P1;SDS_P2;PMS_P1;PMS_P2;Temp;Humidity;BMP_temperature;BMP_pressure;BME280_temperature;BME280_humidity;BME280_pressure;Samples;Min_cycle;Max_cycle;Signal;HPM_P1;HPM_P2
2023/06/12 00:01:41;;;;;;;2.83;2.37;;;15.60;99.90;;;;;;5042548;28;20222;-50
2023/06/12 00:04:08;;;;;;;3.63;2.70;;;15.60;99.90;;;;;;5009792;28;20213;-50
2023/06/12 00:06:37;;;;;;;4.97;2.57;;;15.70;99.90;;;;;;5035181;28;20191;-51
2023/06/12 00:09:05;;;;;;;2.87;2.50;;;15.60;99.90;;;;;;5037050;28;20273;-51
2023/06/12 00:11:32;;;;;;;4.90;2.50;;;15.60;99.90;;;;;;5029582;28;20221;-53
2023/06/12 00:13:58;;;;;;;5.47;2.67;;;15.60;99.90;;;;;;5039149;28;20210;-54
2023/06/12 00:16:25;;;;;;;4.60;2.70;;;15.60;99.90;;;;;;5043228;28;20253;-51
2023/06/12 00:18:54;;;;;;;8.07;2.67;;;15.60;99.90;;;;;;5016163;28;20231;-51
2023/06/12 00:21:22;;;;;;;10.03;2.80;;;15.50;99.90;;;;;;5032952;28;20666;-49
2023/06/12 00:23:50;;;;;;;3.97;2.90;;;15.50;99.90;;;;;;5031979;28;20203;-51
2023/06/12 00:26:17;;;;;;;4.80;2.50;;;15.50;99.90;;;;;;5031006;28;20277;-54
2023/06/12 00:28:46;;;;;;;4.37;2.53;;;15.40;99.90;;;;;;5040784;28;20251;-53
2023/06/12 00:31:13;;;;;;;3.43;2.70;;;15.40;99.90;;;;;;5040467;28;20512;-49
2023/06/12 00:33:41;;;;;;;5.83;2.70;;;15.40;99.90;;;;;;5031308;28;20202;-54
2023/06/12 00:36:10;;;;;;;4.27;2.83;;;15.30;99.90;;;;;;5013718;28;20199;-50
2023/06/12 00:38:36;;;;;;;5.40;2.70;;;15.30;99.90;;;;;;5036771;28;20705;-52
2023/06/12 00:41:03;;;;;;;3.43;2.27;;;15.30;99.90;;;;;;5038658;28;20273;-52
2023/06/12 00:43:30;;;;;;;6.53;2.77;;;15.30;99.90;;;;;;5035409;28;20202;-52
2023/06/12 00:45:57;;;;;;;4.87;2.70;;;15.20;99.90;;;;;;5035944;28;20192;-54
2023/06/12 00:48:24;;;;;;;5.80;2.80;;;15.20;99.90;;;;;;5039163;28;20215;-49
2023/06/12 00:50:52;;;;;;;4.70;2.67;;;15.20;99.90;;;;;;5015250;28;20197;-51
2023/06/12 00:53:20;;;;;;;8.43;3.20;;;15.10;99.90;;;;;;5025929;28;20276;-52
2023/06/12 00:55:47;;;;;;;3.23;2.50;;;15.10;99.90;;;;;;5040226;28;20249;-52
2023/06/12 00:58:15;;;;;;;4.57;2.60;;;15.10;99.90;;;;;;5029959;28;20239;-55
2023/06/12 01:00:43;;;;;;;3.93;2.60;;;15.10;99.90;;;;;;5039169;28;20223;-53
2023/06/12 01:03:13;;;;;;;4.43;2.57;;;15.10;99.90;;;;;;5039903;28;20183;-51
2023/06/12 01:05:42;;;;;;;2.70;2.33;;;15.00;99.90;;;;;;5016541;28;20295;-52
2023/06/12 01:08:35;;;;;;;3.77;2.73;;;15.00;99.90;;;;;;5030554;28;20247;-51
2023/06/12 01:11:06;;;;;;;6.23;2.60;;;15.00;99.90;;;;;;5027242;28;20195;-54
2023/06/12 01:13:34;;;;;;;4.13;3.03;;;14.90;99.90;;;;;;5030976;28;20196;-56
2023/06/12 01:16:01;;;;;;;4.23;2.80;;;14.90;99.90;;;;;;5028097;28;20184;-52
2023/06/12 01:18:29;;;;;;;6.20;3.17;;;14.90;99.90;;;;;;5043076;28;20253;-55
2023/06/12 01:21:01;;;;;;;5.37;3.03;;;14.90;99.90;;;;;;5023602;28;20221;-50
2023/06/12 01:24:00;;;;;;;3.57;2.93;;;14.80;99.90;;;;;;5033257;28;20191;-53
2023/06/12 01:26:46;;;;;;;5.17;2.53;;;14.80;99.90;;;;;;5038550;28;20208;-53
2023/06/12 01:29:50;;;;;;;5.23;3.10;;;14.80;99.90;;;;;;5036242;28;20689;-52
2023/06/12 01:32:19;;;;;;;5.97;3.30;;;14.80;99.90;;;;;;5044285;28;20317;-52
2023/06/12 01:34:53;;;;;;;5.83;3.40;;;14.70;99.90;;;;;;5035870;28;20937;-51
2023/06/12 01:37:32;;;;;;;4.37;2.97;;;14.70;99.90;;;;;;5018365;28;20248;-54
2023/06/12 01:40:02;;;;;;;4.73;2.73;;;14.70;99.90;;;;;;5040330;28;20568;-51
2023/06/12 01:42:31;;;;;;;6.40;2.87;;;14.70;99.90;;;;;;5041620;28;20611;-50
2023/06/12 01:44:58;;;;;;;7.60;3.77;;;14.70;99.90;;;;;;5035983;28;20208;-53
2023/06/12 01:47:26;;;;;;;3.83;3.40;;;14.70;99.90;;;;;;5038385;28;20253;-52
2023/06/12 01:49:53;;;;;;;4.13;3.10;;;14.70;99.90;;;;;;5042990;28;20922;-50
2023/06/12 01:52:20;;;;;;;4.83;3.30;;;14.60;99.90;;;;;;5024685;28;20207;-50
2023/06/12 01:54:48;;;;;;;3.40;3.07;;;14.60;99.90;;;;;;5033118;28;20187;-50
2023/06/12 01:57:19;;;;;;;4.63;3.10;;;14.60;99.90;;;;;;5037417;28;20195;-54
2023/06/12 01:59:46;;;;;;;5.93;3.10;;;14.50;99.90;;;;;;5037985;28;20223;-52
2023/06/12 02:02:13;;;;;;;5.67;3.10;;;14.50;99.90;;;;;;5036549;28;20600;-51
2023/06/12 02:04:42;;;;;;;4.63;3.77;;;14.60;99.90;;;;;;5040308;28;20183;-48
2023/06/12 02:07:09;;;;;;;7.67;2.90;;;14.60;99.90;;;;;;5024646;28;20211;-53
2023/06/12 02:09:36;;;;;;;6.03;3.33;;;14.50;99.90;;;;;;5033492;28;20203;-53
2023/06/12 02:12:04;;;;;;;4.30;3.00;;;14.60;99.90;;;;;;5041782;28;20211;-51
2023/06/12 02:14:31;;;;;;;4.03;3.03;;;14.60;99.90;;;;;;5040849;28;20281;-54
2023/06/12 02:17:02;;;;;;;3.90;2.97;;;14.60;99.90;;;;;;5035936;28;20277;-51
2023/06/12 02:19:29;;;;;;;7.73;3.20;;;14.60;99.90;;;;;;5040751;28;20646;-52
2023/06/12 02:21:58;;;;;;;5.97;3.37;;;14.60;99.90;;;;;;5038467;28;20195;-50
2023/06/12 02:24:31;;;;;;;4.80;2.80;;;14.60;99.90;;;;;;5016854;28;20783;-53
2023/06/12 02:27:00;;;;;;;5.23;3.03;;;14.60;99.90;;;;;;5040565;28;20213;-51
2023/06/12 02:29:27;;;;;;;4.40;3.13;;;14.60;99.90;;;;;;5041320;28;20215;-55
2023/06/12 02:31:56;;;;;;;5.17;3.27;;;14.60;99.90;;;;;;5035833;28;20210;-55
2023/06/12 02:34:23;;;;;;;6.37;3.13;;;14.60;99.90;;;;;;5035596;28;20948;-55
2023/06/12 02:36:51;;;;;;;3.90;3.03;;;14.60;99.90;;;;;;5041776;28;20275;-53
2023/06/12 02:39:23;;;;;;;4.77;3.23;;;14.50;99.90;;;;;;5022463;28;20211;-54
2023/06/12 02:41:50;;;;;;;4.10;3.30;;;14.50;99.90;;;;;;5031068;28;20713;-51
2023/06/12 02:44:17;;;;;;;3.27;3.00;;;14.50;99.90;;;;;;5042666;28;20214;-53
2023/06/12 02:46:53;;;;;;;6.17;3.10;;;14.50;99.90;;;;;;5034542;28;20203;-53
2023/06/12 02:49:24;;;;;;;4.23;2.90;;;14.60;99.90;;;;;;5032069;28;20300;-54
2023/06/12 02:51:51;;;;;;;6.17;3.00;;;14.50;99.90;;;;;;5041453;28;20887;-52
2023/06/12 02:54:19;;;;;;;6.27;3.00;;;14.50;99.90;;;;;;5020828;28;20235;-54
2023/06/12 02:56:47;;;;;;;5.27;3.67;;;14.50;99.90;;;;;;5031011;28;20211;-51
2023/06/12 02:59:15;;;;;;;5.20;3.33;;;14.50;99.90;;;;;;5034143;28;20215;-55
2023/06/12 03:01:44;;;;;;;5.17;3.00;;;14.50;99.90;;;;;;5039566;28;20269;-52
2023/06/12 03:04:20;;;;;;;5.10;2.83;;;14.50;99.90;;;;;;5035162;28;20203;-54
2023/06/12 03:06:47;;;;;;;6.77;3.47;;;14.50;99.90;;;;;;5041321;28;20270;-52
2023/06/12 03:09:15;;;;;;;3.90;3.03;;;14.50;99.90;;;;;;5037647;28;20294;-54
2023/06/12 03:11:43;;;;;;;3.80;2.43;;;14.50;99.90;;;;;;5006206;28;20203;-52
2023/06/12 03:14:12;;;;;;;3.80;3.43;;;14.50;99.90;;;;;;5037954;28;20207;-52
2023/06/12 03:16:39;;;;;;;9.00;3.30;;;14.50;99.90;;;;;;5038756;28;20278;-51
2023/06/12 03:19:06;;;;;;;7.33;3.80;;;14.50;99.90;;;;;;5040847;28;20210;-49
2023/06/12 03:21:33;;;;;;;5.93;3.10;;;14.40;99.90;;;;;;5027000;28;20227;-54
2023/06/12 03:24:00;;;;;;;4.23;3.00;;;14.40;99.90;;;;;;5040760;28;20610;-52
2023/06/12 03:26:30;;;;;;;8.70;3.47;;;14.40;99.90;;;;;;5018901;28;20214;-53
2023/06/12 03:28:58;;;;;;;4.43;2.73;;;14.40;99.90;;;;;;5038232;28;20234;-52
2023/06/12 03:31:26;;;;;;;6.10;2.93;;;14.40;99.90;;;;;;5030946;28;20587;-54
2023/06/12 03:33:54;;;;;;;6.73;3.20;;;14.40;99.90;;;;;;5032087;28;20192;-50
2023/06/12 03:36:23;;;;;;;4.03;3.00;;;14.50;99.90;;;;;;5035342;28;20253;-54
2023/06/12 03:38:50;;;;;;;4.67;3.80;;;14.50;99.90;;;;;;5031689;28;20242;-51
2023/06/12 03:41:18;;;;;;;11.03;3.57;;;14.50;99.90;;;;;;5018633;28;20228;-49
2023/06/12 03:43:45;;;;;;;6.63;4.00;;;14.50;99.90;;;;;;5030316;28;20293;-55
2023/06/12 03:46:12;;;;;;;3.10;2.80;;;14.50;99.90;;;;;;5032120;28;20190;-53
2023/06/12 03:48:40;;;;;;;4.27;2.80;;;14.60;99.90;;;;;;5041467;28;20215;-54
2023/06/12 03:51:07;;;;;;;3.93;2.93;;;14.50;99.90;;;;;;5032667;28;20203;-49
2023/06/12 03:53:34;;;;;;;5.17;3.07;;;14.60;99.90;;;;;;5043564;28;20195;-51
2023/06/12 03:56:01;;;;;;;4.53;3.00;;;14.60;99.90;;;;;;5039462;28;20179;-53
2023/06/12 03:58:30;;;;;;;3.23;2.93;;;14.60;99.90;;;;;;5012608;28;20220;-54
2023/06/12 04:00:57;;;;;;;6.63;2.93;;;14.60;99.90;;;;;;5027545;28;20226;-55
2023/06/12 04:03:25;;;;;;;3.23;2.70;;;14.70;99.90;;;;;;5022756;28;20210;-55
2023/06/12 04:05:54;;;;;;;6.00;3.53;;;14.70;99.90;;;;;;5044314;28;20911;-53
2023/06/12 04:08:22;;;;;;;4.60;2.80;;;14.70;99.90;;;;;;5026544;28;20219;-54
2023/06/12 04:10:50;;;;;;;4.57;3.03;;;14.70;99.90;;;;;;5035873;28;20251;-50
2023/06/12 04:13:16;;;;;;;6.00;3.20;;;14.70;99.90;;;;;;5020885;28;20223;-50
2023/06/12 04:15:43;;;;;;;3.53;2.80;;;14.80;99.90;;;;;;5033525;28;20199;-51
2023/06/12 04:18:10;;;;;;;3.70;2.60;;;14.80;99.90;;;;;;5041603;28;20203;-54
2023/06/12 04:20:38;;;;;;;3.57;3.20;;;14.80;99.90;;;;;;5027323;28;21055;-54
2023/06/12 04:23:11;;;;;;;6.13;2.90;;;14.80;99.90;;;;;;5025860;28;20222;-52
2023/06/12 04:25:38;;;;;;;4.50;3.00;;;14.90;99.90;;;;;;5038383;28;20218;-50
2023/06/12 04:28:07;;;;;;;5.53;3.30;;;14.90;99.90;;;;;;5041789;28;20219;-49
2023/06/12 04:30:35;;;;;;;4.57;3.00;;;14.90;99.90;;;;;;5013171;28;20213;-53
2023/06/12 04:33:02;;;;;;;7.47;2.90;;;14.90;99.90;;;;;;5031681;28;20886;-52
2023/06/12 04:35:33;;;;;;;4.23;2.83;;;14.90;99.90;;;;;;5036955;28;20192;-53
2023/06/12 04:38:00;;;;;;;4.50;2.80;;;15.00;99.90;;;;;;5026675;28;20227;-51
2023/06/12 04:40:28;;;;;;;3.30;3.00;;;15.00;99.90;;;;;;5041682;28;20199;-53
2023/06/12 04:42:59;;;;;;;4.47;3.07;;;15.10;99.90;;;;;;5041096;28;20186;-51
2023/06/12 04:45:26;;;;;;;5.10;2.70;;;15.00;99.90;;;;;;5010878;28;20199;-52
2023/06/12 04:47:53;;;;;;;6.13;3.20;;;15.10;99.90;;;;;;5027792;28;20219;-50
2023/06/12 04:50:20;;;;;;;4.00;2.90;;;15.10;99.90;;;;;;5051658;28;20617;-52
2023/06/12 04:52:48;;;;;;;4.13;2.87;;;15.20;99.90;;;;;;5041098;28;20203;-53
2023/06/12 04:55:20;;;;;;;6.10;3.17;;;15.10;99.90;;;;;;5039547;28;20572;-53
2023/06/12 04:57:52;;;;;;;4.70;3.20;;;15.10;99.90;;;;;;5035399;28;20211;-52
2023/06/12 05:00:22;;;;;;;3.93;3.20;;;15.20;99.90;;;;;;5018980;28;20231;-54
2023/06/12 05:02:49;;;;;;;5.20;3.67;;;15.20;99.90;;;;;;5040902;28;20189;-52
2023/06/12 05:05:16;;;;;;;5.60;3.00;;;15.30;99.90;;;;;;5045291;28;20203;-53
2023/06/12 05:07:45;;;;;;;5.33;3.10;;;15.30;99.90;;;;;;5033248;28;20191;-53
2023/06/12 05:10:13;;;;;;;5.43;3.37;;;15.40;99.90;;;;;;5034177;28;20322;-51
2023/06/12 05:12:40;;;;;;;4.33;2.83;;;15.40;99.90;;;;;;5043702;28;20222;-52
2023/06/12 05:15:10;;;;;;;3.43;2.97;;;15.50;99.90;;;;;;5021443;28;20215;-53
2023/06/12 05:17:37;;;;;;;5.63;3.30;;;15.60;99.90;;;;;;5053816;28;20187;-55
2023/06/12 05:20:08;;;;;;;4.17;3.03;;;15.60;99.90;;;;;;5042173;28;20202;-53
2023/06/12 05:22:36;;;;;;;7.00;2.93;;;15.70;99.90;;;;;;5031219;28;20243;-55
2023/06/12 05:25:05;;;;;;;5.00;3.23;;;15.80;99.90;;;;;;5037322;28;20203;-53
2023/06/12 05:27:33;;;;;;;4.63;3.40;;;15.90;99.90;;;;;;5042392;28;20257;-54
2023/06/12 05:30:01;;;;;;;4.13;3.20;;;16.00;99.90;;;;;;5023747;28;20215;-49
2023/06/12 05:32:30;;;;;;;3.70;2.67;;;16.10;99.90;;;;;;5040409;28;20200;-54
2023/06/12 05:34:57;;;;;;;3.77;3.27;;;16.20;99.90;;;;;;5032008;28;20195;-53
2023/06/12 05:37:24;;;;;;;4.30;3.30;;;16.30;99.90;;;;;;5036424;28;20194;-53
2023/06/12 05:39:51;;;;;;;3.77;3.47;;;16.30;99.90;;;;;;5035084;28;20211;-52
2023/06/12 05:42:18;;;;;;;5.63;3.57;;;16.40;99.90;;;;;;5036522;28;20206;-49
2023/06/12 05:44:46;;;;;;;5.67;3.37;;;16.40;99.90;;;;;;5033758;28;20686;-54
2023/06/12 05:47:13;;;;;;;4.93;3.73;;;16.50;99.90;;;;;;5013935;28;20199;-52
2023/06/12 05:49:41;;;;;;;5.57;3.70;;;16.50;99.90;;;;;;5043619;28;20222;-53
2023/06/12 05:52:08;;;;;;;6.03;3.63;;;16.60;99.90;;;;;;5039247;28;20620;-50
2023/06/12 05:54:35;;;;;;;4.87;3.67;;;16.70;99.90;;;;;;5034530;28;20195;-50
2023/06/12 05:57:03;;;;;;;4.17;3.73;;;16.80;99.90;;;;;;5036304;28;20260;-53
2023/06/12 05:59:31;;;;;;;8.10;3.90;;;17.00;99.90;;;;;;5042826;28;20298;-53
2023/06/12 06:02:00;;;;;;;4.47;4.00;;;17.20;99.90;;;;;;5021869;28;20274;-53
2023/06/12 06:04:28;;;;;;;4.50;4.10;;;17.30;99.90;;;;;;5039530;28;20269;-54
2023/06/12 06:06:57;;;;;;;6.37;4.10;;;17.40;99.90;;;;;;5042403;28;20204;-54
2023/06/12 06:09:24;;;;;;;4.93;3.63;;;17.50;99.90;;;;;;5027587;28;20231;-53
2023/06/12 06:11:50;;;;;;;4.83;3.80;;;17.70;99.90;;;;;;5044269;28;20191;-54
2023/06/12 06:14:19;;;;;;;6.67;3.90;;;17.90;99.90;;;;;;5039238;28;20184;-53
2023/06/12 06:16:46;;;;;;;5.73;4.20;;;18.20;99.90;;;;;;5010864;28;20961;-52
2023/06/12 06:19:13;;;;;;;9.70;4.17;;;18.40;99.90;;;;;;5040831;28;20215;-53
2023/06/12 06:21:40;;;;;;;6.43;4.20;;;18.60;99.90;;;;;;5033909;28;20199;-50
2023/06/12 06:24:08;;;;;;;4.47;4.07;;;18.70;99.90;;;;;;5043728;28;20658;-50
2023/06/12 06:26:36;;;;;;;7.57;3.83;;;18.80;99.90;;;;;;5032700;28;20196;-53
2023/06/12 06:29:03;;;;;;;5.77;4.20;;;18.90;99.90;;;;;;5041823;28;20624;-54
2023/06/12 06:31:30;;;;;;;5.03;4.00;;;19.10;99.90;;;;;;5022777;28;20190;-55
2023/06/12 06:33:57;;;;;;;4.80;4.27;;;19.30;99.90;;;;;;5032381;28;20278;-51
2023/06/12 06:36:24;;;;;;;6.87;3.73;;;19.40;99.90;;;;;;5040965;28;20187;-54
2023/06/12 06:38:51;;;;;;;4.63;4.17;;;19.60;99.80;;;;;;5041473;28;20239;-51
2023/06/12 06:41:19;;;;;;;6.70;3.97;;;19.70;99.20;;;;;;5035996;28;20225;-53
2023/06/12 06:43:47;;;;;;;4.80;4.40;;;19.90;98.40;;;;;;5037641;28;20290;-53
2023/06/12 06:46:15;;;;;;;5.97;4.07;;;20.00;97.90;;;;;;5039807;28;20222;-53
2023/06/12 06:48:42;;;;;;;6.50;4.07;;;20.10;97.30;;;;;;5018315;28;20227;-49
2023/06/12 06:51:09;;;;;;;7.10;3.33;;;20.20;97.00;;;;;;5035858;28;20194;-53
2023/06/12 06:53:36;;;;;;;4.43;4.00;;;20.30;96.70;;;;;;5040371;28;20899;-51
2023/06/12 06:56:03;;;;;;;4.73;4.10;;;20.40;96.10;;;;;;5032192;28;20203;-54
2023/06/12 06:58:31;;;;;;;6.83;4.07;;;20.50;95.60;;;;;;5028132;28;20321;-50
2023/06/12 07:00:58;;;;;;;5.43;4.17;;;20.60;95.10;;;;;;5036539;28;20273;-53
2023/06/12 07:03:25;;;;;;;4.43;4.03;;;20.60;94.60;;;;;;5018267;28;20966;-54
2023/06/12 07:05:52;;;;;;;6.10;4.60;;;20.70;94.60;;;;;;5034649;28;20294;-48
2023/06/12 07:08:19;;;;;;;5.57;4.00;;;20.70;94.30;;;;;;5032834;28;20298;-54
2023/06/12 07:10:46;;;;;;;4.43;4.00;;;20.90;94.00;;;;;;5040895;28;20207;-50
2023/06/12 07:13:13;;;;;;;9.33;3.93;;;21.00;93.30;;;;;;5031994;28;20585;-55
2023/06/12 07:15:45;;;;;;;5.30;3.90;;;21.10;93.50;;;;;;5043624;28;20187;-49
2023/06/12 07:18:14;;;;;;;4.57;4.13;;;21.20;93.00;;;;;;5023453;28;20234;-55
2023/06/12 07:20:41;;;;;;;4.20;3.80;;;21.40;92.40;;;;;;5024411;28;20299;-51
2023/06/12 07:23:08;;;;;;;4.43;4.03;;;21.50;91.70;;;;;;5040225;28;20208;-51
2023/06/12 07:25:36;;;;;;;5.60;3.93;;;21.60;91.50;;;;;;5039873;28;20248;-54
2023/06/12 07:28:04;;;;;;;4.50;4.03;;;21.70;91.20;;;;;;5016763;28;20220;-51
2023/06/12 07:30:33;;;;;;;4.87;4.13;;;21.80;90.80;;;;;;5041066;28;20191;-50
2023/06/12 07:33:02;;;;;;;6.03;3.40;;;21.90;90.40;;;;;;5025533;28;21564;-55
2023/06/12 07:35:30;;;;;;;7.57;3.87;;;22.00;90.20;;;;;;5011408;28;20200;-55
2023/06/12 07:37:57;;;;;;;6.37;3.57;;;22.10;89.80;;;;;;5028543;28;20231;-58
2023/06/12 07:40:24;;;;;;;4.83;3.63;;;22.10;89.50;;;;;;5041169;28;20584;-54
2023/06/12 07:42:51;;;;;;;6.13;3.53;;;22.20;88.70;;;;;;5031414;28;20214;-51
2023/06/12 07:45:19;;;;;;;5.80;3.80;;;22.30;87.70;;;;;;5034395;28;20180;-52
2023/06/12 07:47:47;;;;;;;5.77;3.80;;;22.30;86.70;;;;;;5033419;28;20207;-55
2023/06/12 07:50:16;;;;;;;4.17;3.77;;;22.40;86.10;;;;;;5011428;28;20448;-48
2023/06/12 07:52:43;;;;;;;4.90;3.80;;;22.50;84.40;;;;;;5031339;28;20191;-51
2023/06/12 07:55:10;;;;;;;5.10;4.17;;;22.70;84.10;;;;;;5036035;28;20203;-52
2023/06/12 07:57:37;;;;;;;7.67;3.67;;;22.80;82.80;;;;;;5029251;28;20210;-49
2023/06/12 08:00:07;;;;;;;4.80;3.97;;;22.80;80.80;;;;;;5037924;28;21066;-52
2023/06/12 08:02:58;;;;;;;4.33;3.90;;;22.80;80.30;;;;;;5035690;28;20701;-53
2023/06/12 08:05:32;;;;;;;3.87;3.57;;;22.90;80.20;;;;;;5020992;28;20685;-53
2023/06/12 08:08:02;;;;;;;4.60;3.90;;;23.00;79.40;;;;;;5022816;28;20223;-51
2023/06/12 08:10:29;;;;;;;4.23;3.87;;;23.10;77.80;;;;;;5039315;28;20199;-54
2023/06/12 08:12:56;;;;;;;4.63;3.50;;;23.20;77.00;;;;;;5033385;28;20222;-54
2023/06/12 08:15:24;;;;;;;3.85;3.55;;;23.30;76.00;;;;;;5038006;28;20293;-55
2023/06/12 08:17:51;;;;;;;4.15;3.42;;;23.40;75.30;;;;;;5037421;28;20219;-53
2023/06/12 08:20:18;;;;;;;6.25;4.00;;;23.50;74.40;;;;;;5025533;28;20253;-55
2023/06/12 08:22:48;;;;;;;4.13;3.83;;;23.60;73.10;;;;;;5028068;28;20301;-53
2023/06/12 08:25:16;;;;;;;3.78;3.47;;;23.70;72.90;;;;;;5033611;28;20195;-56
2023/06/12 08:27:43;;;;;;;3.97;3.67;;;23.80;72.90;;;;;;5039783;28;20199;-55
2023/06/12 08:30:10;;;;;;;3.40;3.15;;;23.80;72.60;;;;;;5030260;28;20282;-54
2023/06/12 08:32:37;;;;;;;5.00;3.67;;;23.90;71.30;;;;;;5033987;28;20286;-49
2023/06/12 08:35:05;;;;;;;3.67;3.35;;;24.00;70.80;;;;;;5030245;28;20210;-55
2023/06/12 08:37:32;;;;;;;4.57;3.63;;;24.10;70.60;;;;;;5014685;28;20594;-51
2023/06/12 08:40:01;;;;;;;3.90;3.60;;;24.20;69.90;;;;;;5032341;28;20199;-52
2023/06/12 08:42:28;;;;;;;3.70;3.40;;;24.30;68.20;;;;;;5041144;28;20304;-53
2023/06/12 08:45:02;;;;;;;3.85;3.47;;;24.40;67.80;;;;;;5037308;28;20702;-51
2023/06/12 08:47:33;;;;;;;4.13;3.83;;;24.50;66.90;;;;;;5036706;28;20256;-51
2023/06/12 08:50:00;;;;;;;4.10;3.40;;;24.60;67.20;;;;;;5029874;28;20615;-50
2023/06/12 08:52:29;;;;;;;3.78;3.47;;;24.70;66.20;;;;;;5015575;28;20234;-52
2023/06/12 08:54:57;;;;;;;3.95;3.25;;;24.80;65.80;;;;;;5027982;28;20254;-54
2023/06/12 08:57:27;;;;;;;3.70;3.40;;;24.90;65.50;;;;;;5036434;28;20188;-53
2023/06/12 08:59:54;;;;;;;3.75;3.35;;;24.90;64.00;;;;;;5035527;28;20575;-53
2023/06/12 09:02:23;;;;;;;4.50;3.53;;;24.90;63.50;;;;;;5038229;28;20207;-55
2023/06/12 09:04:57;;;;;;;3.97;3.40;;;25.00;62.90;;;;;;5029370;28;20664;-54
2023/06/12 09:07:26;;;;;;;3.83;3.15;;;25.10;62.40;;;;;;5014305;28;20206;-52
2023/06/12 09:09:53;;;;;;;5.10;3.60;;;25.20;62.10;;;;;;5031503;28;20200;-54
2023/06/12 09:12:20;;;;;;;4.40;2.95;;;25.20;61.90;;;;;;5034568;28;20195;-53
2023/06/12 09:14:50;;;;;;;3.45;3.15;;;25.20;61.90;;;;;;5037847;28;20199;-54
2023/06/12 09:17:17;;;;;;;3.97;3.30;;;25.40;61.40;;;;;;5035354;28;20199;-56
2023/06/12 09:19:45;;;;;;;3.40;3.20;;;25.50;60.60;;;;;;5035270;28;20204;-55
2023/06/12 09:22:13;;;;;;;6.82;3.58;;;25.50;58.80;;;;;;5011523;28;20933;-50
2023/06/12 09:24:41;;;;;;;5.03;2.90;;;25.50;58.10;;;;;;5033751;28;20210;-53
2023/06/12 09:27:08;;;;;;;3.63;3.03;;;25.60;57.90;;;;;;5033282;28;20191;-54
2023/06/12 09:29:38;;;;;;;3.10;2.80;;;25.60;57.30;;;;;;5041474;28;20211;-54
2023/06/12 09:32:11;;;;;;;3.85;3.35;;;25.60;57.60;;;;;;5024191;28;20278;-54
2023/06/12 09:34:38;;;;;;;4.53;3.60;;;25.60;57.10;;;;;;5040549;28;20208;-52
2023/06/12 09:37:08;;;;;;;5.93;3.63;;;25.70;56.50;;;;;;5035322;28;20638;-51
2023/06/12 09:39:35;;;;;;;4.32;3.00;;;25.80;56.00;;;;;;5019206;28;20657;-51
2023/06/12 09:42:03;;;;;;;3.10;2.80;;;26.00;55.60;;;;;;5031238;28;20235;-51
2023/06/12 09:44:31;;;;;;;3.83;2.80;;;26.00;54.40;;;;;;5037099;28;20249;-51
2023/06/12 09:47:02;;;;;;;5.05;2.70;;;26.00;54.30;;;;;;5034147;28;20253;-54
2023/06/12 09:49:31;;;;;;;3.35;2.97;;;26.20;53.10;;;;;;5042445;28;20223;-47
2023/06/12 09:52:02;;;;;;;3.38;2.95;;;26.20;52.80;;;;;;5034766;28;20993;-52
2023/06/12 09:54:30;;;;;;;3.78;3.38;;;26.20;53.00;;;;;;5022062;28;20207;-53
2023/06/12 09:56:59;;;;;;;11.77;3.42;;;26.20;52.40;;;;;;5027769;28;20214;-49
2023/06/12 09:59:28;;;;;;;3.45;2.92;;;26.30;51.70;;;;;;5044108;28;20306;-54
2023/06/12 10:02:00;;;;;;;4.22;3.00;;;26.30;51.00;;;;;;5034729;28;20199;-54
2023/06/12 10:04:35;;;;;;;3.53;2.90;;;26.30;50.90;;;;;;5043900;28;20199;-52
2023/06/12 10:07:07;;;;;;;2.95;2.75;;;26.30;50.40;;;;;;5025493;28;20199;-53
2023/06/12 10:09:35;;;;;;;4.30;2.78;;;26.30;50.50;;;;;;5040203;28;20222;-50
2023/06/12 10:12:02;;;;;;;3.90;3.60;;;26.40;50.70;;;;;;5009252;28;20207;-51
2023/06/12 10:14:29;;;;;;;4.95;3.08;;;26.50;49.50;;;;;;5040769;28;20195;-52
2023/06/12 10:16:58;;;;;;;3.25;2.95;;;26.50;48.80;;;;;;5032570;28;20669;-52
2023/06/12 10:19:26;;;;;;;3.78;3.05;;;26.50;48.90;;;;;;5038532;28;20211;-54
2023/06/12 10:21:56;;;;;;;4.57;3.58;;;26.50;48.30;;;;;;5036233;28;20195;-52
2023/06/12 10:24:23;;;;;;;3.65;3.30;;;26.60;48.20;;;;;;5041269;28;20252;-51
2023/06/12 10:26:53;;;;;;;6.55;3.45;;;26.60;48.50;;;;;;5013914;28;20214;-52
2023/06/12 10:29:27;;;;;;;3.72;3.20;;;26.60;48.90;;;;;;5039472;28;20724;-54
2023/06/12 10:31:54;;;;;;;3.80;2.95;;;26.70;48.80;;;;;;5027969;28;20277;-50
2023/06/12 10:34:21;;;;;;;3.35;2.95;;;26.80;48.10;;;;;;5041676;28;20282;-49
2023/06/12 10:36:49;;;;;;;3.92;3.25;;;26.70;47.80;;;;;;5038786;28;20195;-52
2023/06/12 10:39:19;;;;;;;4.38;3.35;;;26.80;47.50;;;;;;5034355;28;20223;-53
2023/06/12 10:41:57;;;;;;;3.70;3.40;;;26.90;47.30;;;;;;5015809;28;20658;-54
2023/06/12 10:44:38;;;;;;;3.60;3.30;;;26.90;46.80;;;;;;5033888;28;20273;-52
2023/06/12 10:47:17;;;;;;;6.18;3.28;;;27.00;45.70;;;;;;5017277;28;20199;-53
2023/06/12 10:49:58;;;;;;;3.30;3.03;;;27.00;46.40;;;;;;5034886;28;20223;-54
2023/06/12 10:52:25;;;;;;;6.40;2.95;;;27.00;46.40;;;;;;5040044;28;20304;-49
2023/06/12 10:55:16;;;;;;;3.67;2.97;;;27.10;46.50;;;;;;5031292;28;20246;-50
2023/06/12 10:57:48;;;;;;;3.30;3.10;;;27.10;45.20;;;;;;5013562;28;20670;-51
2023/06/12 11:00:17;;;;;;;5.93;2.85;;;27.10;46.30;;;;;;5036147;28;20179;-50
2023/06/12 11:02:46;;;;;;;5.05;3.00;;;27.10;46.00;;;;;;5032113;28;20222;-55
2023/06/12 11:05:18;;;;;;;5.15;2.78;;;27.10;45.80;;;;;;5037838;28;20213;-56
2023/06/12 11:07:48;;;;;;;8.10;3.28;;;27.10;45.40;;;;;;5034893;28;20195;-51
2023/06/12 11:10:17;;;;;;;3.92;3.20;;;27.10;45.30;;;;;;5032158;28;20191;-52
2023/06/12 11:12:48;;;;;;;3.08;2.85;;;27.20;45.50;;;;;;5017680;28;20223;-50
2023/06/12 11:15:16;;;;;;;3.38;2.90;;;27.30;45.30;;;;;;5034252;28;20920;-51
2023/06/12 11:17:44;;;;;;;3.55;3.25;;;27.20;45.30;;;;;;5014682;28;20276;-48
2023/06/12 11:20:12;;;;;;;6.53;3.30;;;27.30;45.40;;;;;;5042456;28;20198;-52
2023/06/12 11:22:39;;;;;;;3.10;2.80;;;27.40;44.80;;;;;;5029499;28;20211;-54
2023/06/12 11:25:06;;;;;;;3.38;3.00;;;27.30;44.40;;;;;;5034228;28;20218;-52
2023/06/12 11:27:37;;;;;;;3.25;2.75;;;27.40;44.50;;;;;;5018460;28;20258;-55
2023/06/12 11:30:11;;;;;;;3.70;3.40;;;27.50;44.50;;;;;;5035755;28;20593;-49
2023/06/12 11:32:38;;;;;;;3.33;2.88;;;27.60;44.00;;;;;;5027650;28;20205;-55
2023/06/12 11:35:07;;;;;;;3.65;2.75;;;27.70;43.40;;;;;;5040362;28;20289;-54
2023/06/12 11:37:34;;;;;;;3.40;3.10;;;27.70;42.80;;;;;;5035201;28;20210;-52
2023/06/12 11:40:08;;;;;;;2.65;2.45;;;27.70;43.10;;;;;;5025507;28;20203;-54
2023/06/12 11:42:38;;;;;;;3.53;3.22;;;27.70;42.60;;;;;;5034799;28;20215;-54
2023/06/12 11:45:08;;;;;;;2.85;2.65;;;27.60;42.40;;;;;;5010837;28;20389;-49
2023/06/12 11:47:37;;;;;;;6.40;2.83;;;27.70;42.30;;;;;;5035718;28;20199;-51
2023/06/12 11:50:05;;;;;;;6.75;2.45;;;27.80;42.00;;;;;;5033036;28;20585;-50
2023/06/12 11:52:33;;;;;;;5.60;3.22;;;27.80;41.50;;;;;;5039351;28;20253;-53
2023/06/12 11:55:05;;;;;;;4.00;2.60;;;27.70;41.50;;;;;;5028192;28;20219;-51
2023/06/12 11:57:33;;;;;;;3.70;2.60;;;27.90;41.70;;;;;;5041207;28;20194;-55
2023/06/12 12:00:11;;;;;;;3.72;2.58;;;27.90;42.20;;;;;;5015697;28;20231;-54
2023/06/12 12:02:41;;;;;;;3.20;3.00;;;28.10;45.00;;;;;;5037238;28;20222;-52
2023/06/12 12:05:10;;;;;;;3.95;2.72;;;28.20;42.80;;;;;;5030933;28;20195;-53
2023/06/12 12:07:38;;;;;;;2.78;2.58;;;28.20;46.30;;;;;;5034732;28;20218;-51
2023/06/12 12:10:10;;;;;;;3.55;2.45;;;28.20;40.20;;;;;;5035332;28;20206;-55
2023/06/12 12:12:44;;;;;;;2.50;2.40;;;28.30;40.00;;;;;;5040438;28;20195;-52
2023/06/12 12:15:14;;;;;;;3.03;2.67;;;28.50;39.60;;;;;;5012742;28;20191;-52
2023/06/12 12:17:42;;;;;;;2.40;2.20;;;28.50;39.20;;;;;;5034779;28;20245;-55
2023/06/12 12:20:15;;;;;;;4.13;2.50;;;28.40;39.20;;;;;;5027320;28;20269;-53
2023/06/12 12:22:43;;;;;;;4.32;2.47;;;28.50;38.90;;;;;;5038899;28;20541;-51
2023/06/12 12:25:15;;;;;;;4.13;2.15;;;28.60;38.40;;;;;;5038133;28;20207;-55
2023/06/12 12:27:44;;;;;;;2.50;2.30;;;28.50;38.80;;;;;;5036106;28;20204;-54
2023/06/12 12:30:14;;;;;;;5.15;2.22;;;28.60;38.90;;;;;;5006998;28;20204;-55
2023/06/12 12:32:42;;;;;;;2.50;2.30;;;28.90;39.50;;;;;;5038826;28;20191;-53
2023/06/12 12:35:09;;;;;;;2.58;2.33;;;29.00;37.70;;;;;;5031316;28;20203;-54
2023/06/12 12:37:36;;;;;;;3.03;2.72;;;29.10;38.00;;;;;;5030899;28;20226;-50
2023/06/12 12:40:08;;;;;;;3.05;2.40;;;29.20;37.30;;;;;;5031144;28;20249;-54
2023/06/12 12:42:36;;;;;;;3.50;2.65;;;29.20;37.50;;;;;;5026747;28;20195;-50
2023/06/12 12:45:03;;;;;;;2.78;2.40;;;29.40;37.20;;;;;;5016417;28;20247;-52
2023/06/12 12:47:32;;;;;;;5.40;2.33;;;29.40;36.30;;;;;;5034789;28;20223;-50
2023/06/12 12:49:59;;;;;;;2.95;2.75;;;29.60;36.50;;;;;;5039093;28;20215;-52
2023/06/12 12:52:26;;;;;;;4.53;3.05;;;30.00;36.10;;;;;;5031380;28;20204;-52
2023/06/12 12:54:53;;;;;;;3.05;2.85;;;;;;;;;;5034716;28;20246;-52
2023/06/12 12:57:21;;;;;;;2.63;2.42;;;;;;;;;;5031466;28;20223;-49